Time;durP1;ratioP1;P1;durP2;ratioP2;P2;SDS_P1;SDS_P2;PMS_P1;PMS_P2;Temp;Humidity;BMP_temperature;BMP_pressure;BME280_temperature;BME280_humidity;BME280_pressure;Samples;Min_cycle;Max_cycle;Signal;HPM_P1;HPM_P2
2021/01/07 00:01:33;;;;;;;35.08;21.08;;;180.00;2252.80;;;;;;5119152;28;20114;-64
2021/01/07 00:03:58;;;;;;;26.73;15.35;;;179.80;2252.80;;;;;;5118845;28;20102;-63
2021/01/07 00:06:24;;;;;;;20.02;12.48;;;179.80;2252.80;;;;;;5119117;28;20024;-62
2021/01/07 00:08:52;;;;;;;23.35;10.38;;;179.80;2252.80;;;;;;5118963;28;20028;-61
2021/01/07 00:11:18;;;;;;;13.63;8.98;;;179.90;2252.80;;;;;;5118421;28;20027;-62
2021/01/07 00:13:44;;;;;;;13.40;8.27;;;179.90;2252.80;;;;;;5118951;28;20027;-64
2021/01/07 00:16:10;;;;;;;8.90;6.15;;;179.90;2252.80;;;;;;5119155;28;20135;-61
2021/01/07 00:18:36;;;;;;;8.02;5.03;;;180.00;2252.80;;;;;;5118538;28;20023;-62
2021/01/07 00:21:02;;;;;;;10.80;4.80;;;180.00;2252.80;;;;;;5118816;28;20462;-63
2021/01/07 00:23:28;;;;;;;5.78;3.85;;;180.00;2252.80;;;;;;5118244;28;20110;-61
2021/01/07 00:25:55;;;;;;;6.18;3.13;;;180.00;2252.80;;;;;;5118472;28;20480;-65
2021/01/07 00:28:23;;;;;;;4.60;2.38;;;180.00;2252.80;;;;;;5115617;28;20106;-63
2021/01/07 00:30:49;;;;;;;4.53;2.53;;;180.00;2252.80;;;;;;5116439;28;20030;-64
2021/01/07 00:33:16;;;;;;;5.53;3.17;;;179.90;2252.80;;;;;;5116012;28;20038;-63
2021/01/07 00:35:42;;;;;;;5.93;2.58;;;179.80;2252.80;;;;;;5116513;28;20027;-61
2021/01/07 00:38:08;;;;;;;8.63;3.10;;;179.70;2252.80;;;;;;5116425;28;20070;-64
2021/01/07 00:40:35;;;;;;;7.15;3.33;;;179.70;2252.80;;;;;;5115827;28;20028;-62
2021/01/07 00:43:02;;;;;;;5.30;2.95;;;179.70;2252.80;;;;;;5116105;28;20042;-63
2021/01/07 00:45:29;;;;;;;5.18;2.70;;;179.60;2252.80;;;;;;5116314;28;20076;-64
2021/01/07 00:47:55;;;;;;;4.25;2.28;;;179.60;2252.80;;;;;;5116246;28;20024;-62
2021/01/07 00:50:21;;;;;;;4.55;2.35;;;179.60;2252.80;;;;;;5115925;28;20324;-63
2021/01/07 00:52:47;;;;;;;4.82;2.35;;;179.50;2252.80;;;;;;5115792;28;20058;-63
2021/01/07 00:55:14;;;;;;;4.57;2.53;;;179.50;2252.80;;;;;;5116000;28;20055;-63
2021/01/07 00:57:40;;;;;;;5.57;3.13;;;179.50;2252.80;;;;;;5116154;28;20027;-65
2021/01/07 01:00:12;;;;;;;4.40;3.10;;;179.60;2252.80;;;;;;5115919;28;20035;-62
2021/01/07 01:02:38;;;;;;;6.13;3.13;;;179.50;2252.80;;;;;;5116012;28;20023;-63
2021/01/07 01:05:05;;;;;;;4.53;2.75;;;179.60;2252.80;;;;;;5115664;28;20317;-62
2021/01/07 01:07:31;;;;;;;5.72;3.15;;;179.50;2252.80;;;;;;5115482;28;20034;-62
2021/01/07 01:09:57;;;;;;;4.13;2.30;;;179.60;2252.80;;;;;;5115779;28;20031;-62
2021/01/07 01:12:23;;;;;;;6.50;3.20;;;179.60;2252.80;;;;;;5115983;28;20317;-64
2021/01/07 01:14:49;;;;;;;4.88;2.03;;;179.70;2252.80;;;;;;5115308;28;20035;-62
2021/01/07 01:17:15;;;;;;;3.30;1.60;;;179.70;2252.80;;;;;;5115420;28;20425;-62
2021/01/07 01:19:42;;;;;;;3.65;1.95;;;179.70;2252.80;;;;;;5115045;28;20035;-64
2021/01/07 01:22:08;;;;;;;3.60;2.38;;;179.80;2252.80;;;;;;5115315;28;20023;-66
2021/01/07 01:24:40;;;;;;;4.43;2.33;;;179.80;2252.80;;;;;;5115273;28;20024;-68
2021/01/07 01:27:06;;;;;;;3.50;2.03;;;179.90;2252.80;;;;;;5114816;28;20024;-63
2021/01/07 01:29:44;;;;;;;5.05;2.10;;;179.90;2252.80;;;;;;5115315;28;20028;-68
2021/01/07 01:32:10;;;;;;;5.83;1.70;;;180.00;2252.80;;;;;;5115584;28;20416;-65
2021/01/07 01:34:36;;;;;;;3.45;1.65;;;180.00;2252.80;;;;;;5115576;28;20027;-62
2021/01/07 01:37:05;;;;;;;3.28;1.50;;;180.00;2252.80;;;;;;5115085;28;20065;-64
2021/01/07 01:39:31;;;;;;;4.50;2.03;;;180.00;2252.80;;;;;;5115602;28;20031;-61
2021/01/07 01:41:57;;;;;;;2.50;1.27;;;179.90;2252.80;;;;;;5115101;28;20043;-63
2021/01/07 01:44:23;;;;;;;4.03;1.92;;;180.00;2252.80;;;;;;5115655;28;20072;-62
2021/01/07 01:46:49;;;;;;;3.55;2.00;;;180.00;2252.80;;;;;;5115539;28;20051;-65
2021/01/07 01:49:15;;;;;;;4.95;2.40;;;179.90;2252.80;;;;;;5115232;28;20373;-61
2021/01/07 01:51:44;;;;;;;4.68;2.60;;;179.90;2252.80;;;;;;5115115;28;20028;-61
2021/01/07 01:54:09;;;;;;;;;;;179.70;2252.80;;;;;;5115763;28;20073;-61
2021/01/07 01:56:36;;;;;;;6.10;3.00;;;179.50;2252.80;;;;;;5114761;28;19904;-63
2021/01/07 01:59:02;;;;;;;5.22;3.17;;;179.50;2252.80;;;;;;5115699;28;20104;-64
2021/01/07 02:01:28;;;;;;;6.68;3.10;;;179.40;2252.80;;;;;;5115530;28;20028;-63
2021/01/07 02:03:55;;;;;;;5.72;3.50;;;179.40;2252.80;;;;;;5114620;28;20029;-63
2021/01/07 02:06:23;;;;;;;7.13;3.40;;;179.40;2252.80;;;;;;5115134;28;20028;-64
2021/01/07 02:08:50;;;;;;;7.10;2.80;;;154.50;2252.80;;;;;;5115266;28;20023;-66
2021/01/07 02:11:16;;;;;;;5.60;3.28;;;154.00;2252.80;;;;;;5117208;28;20340;-64
2021/01/07 02:13:49;;;;;;;3.35;1.90;;;153.80;2252.80;;;;;;5118772;28;20436;-64
2021/01/07 02:16:24;;;;;;;4.70;2.13;;;128.90;2252.80;;;;;;5119166;28;20034;-63
2021/01/07 02:18:53;;;;;;;4.70;2.42;;;128.60;2252.80;;;;;;5118638;28;20390;-64
2021/01/07 02:21:19;;;;;;;4.60;2.15;;;128.50;2252.80;;;;;;5118734;28;20470;-64
2021/01/07 02:23:50;;;;;;;4.32;2.42;;;128.50;2252.80;;;;;;5118961;28;20036;-65
2021/01/07 02:26:16;;;;;;;3.70;2.17;;;128.40;2252.80;;;;;;5118487;28;20336;-63
2021/01/07 02:28:42;;;;;;;4.38;2.30;;;128.40;2252.80;;;;;;5118522;28;20036;-65
2021/01/07 02:31:08;;;;;;;3.70;2.05;;;128.30;2252.80;;;;;;5118419;28;20037;-66
2021/01/07 02:33:34;;;;;;;6.63;2.00;;;128.30;2252.80;;;;;;5118668;28;20057;-69
2021/01/07 02:36:00;;;;;;;3.10;1.92;;;128.20;2252.80;;;;;;5118602;28;20023;-66
2021/01/07 02:38:26;;;;;;;4.10;2.13;;;128.10;2252.80;;;;;;5118589;28;20424;-64
2021/01/07 02:40:52;;;;;;;3.40;1.95;;;128.10;2252.80;;;;;;5118429;28;20031;-65
2021/01/07 02:43:17;;;;;;;3.60;1.73;;;128.00;2252.80;;;;;;5118483;28;20402;-66
2021/01/07 02:45:43;;;;;;;2.65;1.23;;;128.10;2252.80;;;;;;5118065;28;20045;-64
2021/01/07 02:48:09;;;;;;;3.70;1.55;;;128.00;2252.80;;;;;;5118063;28;20032;-65
2021/01/07 02:50:35;;;;;;;3.72;1.80;;;128.00;2252.80;;;;;;5117576;28;20093;-64
2021/01/07 02:53:01;;;;;;;2.38;1.23;;;128.00;2252.80;;;;;;5117141;28;20035;-64
2021/01/07 02:55:26;;;;;;;2.33;1.25;;;128.00;2252.80;;;;;;5117791;28;20353;-65
2021/01/07 02:57:52;;;;;;;2.33;1.50;;;128.00;2252.80;;;;;;5117455;28;20020;-63
2021/01/07 03:00:18;;;;;;;1.83;1.02;;;128.00;2252.80;;;;;;5117096;28;20051;-63
2021/01/07 03:02:44;;;;;;;4.00;1.30;;;103.30;2227.20;;;;;;5117658;28;20043;-64
2021/01/07 03:05:11;;;;;;;2.95;1.40;;;128.00;2252.80;;;;;;5116932;28;20023;-65
2021/01/07 03:07:36;;;;;;;3.70;1.30;;;128.00;2252.80;;;;;;5116808;28;20440;-65
2021/01/07 03:10:07;;;;;;;3.03;1.30;;;128.10;2252.80;;;;;;5117636;28;20081;-63
2021/01/07 03:12:32;;;;;;;3.00;1.40;;;128.20;2252.80;;;;;;5118400;28;20028;-62
2021/01/07 03:14:58;;;;;;;3.53;1.50;;;128.20;2252.80;;;;;;5117572;28;20034;-63
2021/01/07 03:17:24;;;;;;;3.15;1.60;;;128.30;2252.80;;;;;;5118058;28;20023;-65
2021/01/07 03:19:50;;;;;;;3.17;1.60;;;128.40;2252.80;;;;;;5117845;28;20042;-64
2021/01/07 03:22:16;;;;;;;4.43;1.92;;;128.40;2252.80;;;;;;5116727;28;20047;-65
2021/01/07 03:24:42;;;;;;;3.42;1.88;;;128.50;2252.80;;;;;;5117433;28;20032;-63
2021/01/07 03:27:07;;;;;;;3.97;1.98;;;128.50;2252.80;;;;;;5117260;28;20023;-63
2021/01/07 03:29:33;;;;;;;4.38;2.05;;;128.60;2252.80;;;;;;5117496;28;20035;-67
2021/01/07 03:31:59;;;;;;;3.05;1.83;;;128.60;2252.80;;;;;;5117522;28;20654;-63
2021/01/07 03:34:25;;;;;;;5.15;1.30;;;128.60;2252.80;;;;;;5117228;28;20028;-65
2021/01/07 03:36:51;;;;;;;2.95;1.60;;;128.60;2252.80;;;;;;5117259;28;20310;-64
2021/01/07 03:39:17;;;;;;;2.97;1.50;;;128.60;2252.80;;;;;;5117357;28;20039;-65
2021/01/07 03:41:44;;;;;;;3.70;1.85;;;128.60;2252.80;;;;;;5117111;28;20026;-64
2021/01/07 03:44:10;;;;;;;2.95;1.58;;;128.50;2252.80;;;;;;5117265;28;20030;-65
2021/01/07 03:46:37;;;;;;;2.63;1.55;;;128.50;2252.80;;;;;;5117030;28;20055;-66
2021/01/07 03:49:03;;;;;;;3.10;1.92;;;128.60;2252.80;;;;;;5117120;28;20035;-65
2021/01/07 03:51:29;;;;;;;4.03;2.50;;;128.70;2252.80;;;;;;5117025;28;20077;-64
2021/01/07 03:53:55;;;;;;;4.68;3.00;;;128.60;2252.80;;;;;;5117385;28;20062;-64
2021/01/07 03:56:21;;;;;;;7.82;3.47;;;128.60;2252.80;;;;;;5117084;28;20055;-65
2021/01/07 03:58:46;;;;;;;6.38;3.53;;;128.60;2252.80;;;;;;5117371;28;20031;-65
2021/01/07 04:01:12;;;;;;;12.00;3.97;;;128.60;2252.80;;;;;;5117423;28;20313;-64
2021/01/07 04:03:38;;;;;;;5.22;3.30;;;128.60;2252.80;;;;;;5116042;28;20382;-65
2021/01/07 04:06:04;;;;;;;4.97;3.47;;;128.60;2252.80;;;;;;5116895;28;20024;-64
2021/01/07 04:08:30;;;;;;;6.47;4.22;;;128.60;2252.80;;;;;;5116935;28;20066;-63
2021/01/07 04:10:56;;;;;;;7.10;4.43;;;128.40;2252.80;;;;;;5116634;28;20366;-65
2021/01/07 04:13:22;;;;;;;5.35;3.47;;;128.50;2252.80;;;;;;5116929;28;20070;-64
2021/01/07 04:15:48;;;;;;;6.70;3.45;;;128.40;2252.80;;;;;;5116217;28;20047;-64
2021/01/07 04:18:14;;;;;;;7.53;4.00;;;128.30;2252.80;;;;;;5116491;28;20447;-64
2021/01/07 04:20:40;;;;;;;7.93;4.68;;;128.10;2252.80;;;;;;5116879;28;20032;-64
2021/01/07 04:23:05;;;;;;;6.93;4.57;;;128.20;2252.80;;;;;;5116303;28;20054;-66
2021/01/07 04:25:31;;;;;;;6.65;4.18;;;128.20;2252.80;;;;;;5116307;28;20337;-63
2021/01/07 04:27:57;;;;;;;5.88;4.32;;;128.10;2252.80;;;;;;5116142;27;20058;-64
2021/01/07 04:30:23;;;;;;;6.15;4.38;;;128.20;2252.80;;;;;;5118302;28;20049;-64
2021/01/07 04:32:49;;;;;;;6.95;4.10;;;128.10;2252.80;;;;;;5118046;28;20031;-65
2021/01/07 04:35:14;;;;;;;7.72;3.80;;;128.10;2252.80;;;;;;5118610;28;20118;-65
2021/01/07 04:37:40;;;;;;;7.70;3.90;;;128.00;2252.80;;;;;;5118240;28;20034;-66
2021/01/07 04:40:07;;;;;;;7.28;3.70;;;128.10;2252.80;;;;;;5118478;28;20488;-63
2021/01/07 04:42:32;;;;;;;6.32;4.28;;;128.30;2252.80;;;;;;5118711;28;20034;-65
2021/01/07 04:45:00;;;;;;;7.43;4.80;;;103.30;2227.20;;;;;;5118412;28;20016;-62
2021/01/07 04:47:26;;;;;;;8.05;5.57;;;128.10;2252.80;;;;;;5118862;28;20043;-63
2021/01/07 04:49:53;;;;;;;9.10;5.03;;;128.30;2252.80;;;;;;5118511;28;20031;-64
2021/01/07 04:52:18;;;;;;;7.97;5.68;;;128.40;2252.80;;;;;;5118303;28;20109;-64
2021/01/07 04:54:45;;;;;;;8.43;5.95;;;128.20;2252.80;;;;;;5118252;28;20058;-62
2021/01/07 04:57:11;;;;;;;10.65;7.05;;;128.60;2252.80;;;;;;5118197;28;20027;-64
2021/01/07 04:59:36;;;;;;;9.57;6.07;;;128.70;2252.80;;;;;;5118185;28;20033;-63
2021/01/07 05:02:03;;;;;;;7.40;4.85;;;128.90;2252.80;;;;;;5118092;28;20049;-64
2021/01/07 05:04:29;;;;;;;7.95;4.70;;;153.60;2252.80;;;;;;5118373;28;20068;-63
2021/01/07 05:06:54;;;;;;;6.60;4.65;;;128.90;2252.80;;;;;;5118013;28;20023;-65
2021/01/07 05:09:21;;;;;;;12.27;6.00;;;128.80;2252.80;;;;;;5118169;28;20024;-65
2021/01/07 05:11:47;;;;;;;9.05;6.32;;;128.70;2252.80;;;;;;5117954;28;20404;-64
2021/01/07 05:14:13;;;;;;;8.50;5.28;;;128.90;2252.80;;;;;;5117984;28;20054;-63
2021/01/07 05:16:39;;;;;;;9.32;4.93;;;153.70;2252.80;;;;;;5118196;28;20028;-64
2021/01/07 05:19:06;;;;;;;8.13;4.40;;;153.80;2252.80;;;;;;5117619;28;20102;-66
2021/01/07 05:21:34;;;;;;;5.70;3.70;;;153.80;2252.80;;;;;;5118132;28;20084;-64
2021/01/07 05:24:01;;;;;;;5.63;3.35;;;153.60;2252.80;;;;;;5118119;28;20031;-64
2021/01/07 05:26:28;;;;;;;6.00;3.65;;;153.80;2252.80;;;;;;5117826;28;20123;-65
2021/01/07 05:28:56;;;;;;;4.97;3.20;;;153.80;2252.80;;;;;;5117734;28;20473;-66
2021/01/07 05:31:24;;;;;;;5.68;3.45;;;153.90;2252.80;;;;;;5117818;28;20024;-62
2021/01/07 05:33:51;;;;;;;6.97;3.67;;;154.00;2252.80;;;;;;5117748;28;20061;-63
2021/01/07 05:36:29;;;;;;;6.70;4.15;;;154.10;2252.80;;;;;;5117716;28;20050;-64
2021/01/07 05:39:01;;;;;;;8.25;3.58;;;154.20;2252.80;;;;;;5118034;28;20023;-64
2021/01/07 05:41:29;;;;;;;5.57;3.00;;;154.10;2252.80;;;;;;5117480;28;20016;-64
2021/01/07 05:44:05;;;;;;;8.98;6.32;;;153.90;2252.80;;;;;;5117636;28;20046;-64
2021/01/07 05:46:32;;;;;;;5.78;3.50;;;154.00;2252.80;;;;;;5121052;28;20050;-64
2021/01/07 05:48:59;;;;;;;6.80;3.90;;;153.90;2252.80;;;;;;5121445;28;20317;-65
2021/01/07 05:51:27;;;;;;;9.48;5.20;;;153.80;2252.80;;;;;;5121742;28;20027;-63
2021/01/07 05:53:54;;;;;;;6.90;5.20;;;153.80;2252.80;;;;;;5120866;28;20016;-64
2021/01/07 05:56:21;;;;;;;6.72;3.90;;;128.90;2252.80;;;;;;5121956;28;20031;-63
2021/01/07 05:58:48;;;;;;;5.93;4.18;;;153.60;2252.80;;;;;;5121609;27;20034;-63
2021/01/07 06:01:16;;;;;;;17.65;10.32;;;128.80;2252.80;;;;;;5121268;28;20023;-64
2021/01/07 06:03:53;;;;;;;9.57;6.10;;;128.60;2252.80;;;;;;5121529;27;20387;-65
2021/01/07 06:06:23;;;;;;;7.97;5.05;;;128.60;2252.80;;;;;;5121532;27;20020;-64
2021/01/07 06:08:54;;;;;;;5.82;3.78;;;128.50;2252.80;;;;;;5121421;28;20031;-63
2021/01/07 06:11:22;;;;;;;6.85;4.28;;;128.30;2252.80;;;;;;5121330;28;20059;-65
2021/01/07 06:13:51;;;;;;;6.85;4.60;;;128.50;2252.80;;;;;;5121628;28;20114;-63
2021/01/07 06:16:19;;;;;;;7.47;5.25;;;128.60;2252.80;;;;;;5121350;27;20360;-62
2021/01/07 06:18:45;;;;;;;9.73;7.57;;;128.80;2252.80;;;;;;5120960;28;20501;-65
2021/01/07 06:21:12;;;;;;;10.15;6.68;;;128.90;2252.80;;;;;;5121198;28;20062;-64
2021/01/07 06:23:42;;;;;;;10.40;7.85;;;153.60;2252.80;;;;;;5121102;28;20068;-63
2021/01/07 06:26:18;;;;;;;7.15;5.70;;;153.80;2252.80;;;;;;5121350;28;20027;-65
2021/01/07 06:28:48;;;;;;;76.32;36.30;;;153.90;2252.80;;;;;;5121106;28;20020;-63
2021/01/07 06:31:15;;;;;;;269.83;144.60;;;153.70;2252.80;;;;;;5121284;28;20028;-64
2021/01/07 06:33:43;;;;;;;90.40;60.03;;;153.80;2252.80;;;;;;5121143;28;20428;-63
2021/01/07 06:36:09;;;;;;;21.02;14.45;;;153.80;2252.80;;;;;;5120252;28;20027;-63
2021/01/07 06:38:35;;;;;;;71.30;45.60;;;153.70;2252.80;;;;;;5121092;28;20332;-66
2021/01/07 06:41:02;;;;;;;264.60;145.32;;;153.70;2252.80;;;;;;5120494;28;20034;-64
2021/01/07 06:43:29;;;;;;;342.20;179.73;;;154.00;2252.80;;;;;;5120225;28;20023;-63
2021/01/07 06:45:56;;;;;;;410.48;255.00;;;154.10;2252.80;;;;;;5120897;28;20132;-64
2021/01/07 06:48:26;;;;;;;72.07;53.42;;;154.20;2252.80;;;;;;5120687;28;20024;-65
2021/01/07 06:50:56;;;;;;;15.25;11.95;;;154.40;2252.80;;;;;;5120281;28;20028;-64
2021/01/07 06:53:22;;;;;;;6.32;4.22;;;154.20;2252.80;;;;;;5120851;28;20458;-64
2021/01/07 06:56:17;;;;;;;10.48;8.88;;;153.90;2252.80;;;;;;5119990;28;20095;-65
2021/01/07 06:58:46;;;;;;;6.20;3.90;;;153.90;2252.80;;;;;;5118177;28;20036;-64
2021/01/07 07:01:17;;;;;;;6.30;3.50;;;153.80;2252.80;;;;;;5119888;27;20312;-66
2021/01/07 07:03:50;;;;;;;5.28;3.50;;;153.60;2252.80;;;;;;5114934;28;20333;-63
2021/01/07 07:06:18;;;;;;;5.50;3.70;;;153.80;2252.80;;;;;;5117353;28;20426;-64
2021/01/07 07:08:46;;;;;;;6.83;4.77;;;153.80;2252.80;;;;;;5118003;28;20032;-63
2021/01/07 07:11:20;;;;;;;5.10;3.33;;;153.80;2252.80;;;;;;5117545;28;20413;-66
2021/01/07 07:13:47;;;;;;;6.93;4.20;;;153.80;2252.80;;;;;;5117662;28;20038;-65
2021/01/07 07:16:15;;;;;;;7.55;4.47;;;154.10;2252.80;;;;;;5118061;28;20033;-63
2021/01/07 07:18:41;;;;;;;7.07;5.05;;;154.20;2252.80;;;;;;5115829;28;20331;-63
2021/01/07 07:21:26;;;;;;;9.25;5.75;;;154.40;2252.80;;;;;;5114699;28;20031;-65
2021/01/07 07:23:56;;;;;;;11.60;8.57;;;154.20;2252.80;;;;;;5117959;28;20334;-66
2021/01/07 07:26:40;;;;;;;10.38;6.35;;;154.30;2252.80;;;;;;5116946;28;20110;-62
2021/01/07 07:29:09;;;;;;;8.85;6.43;;;154.20;2252.80;;;;;;5117655;28;20111;-64
2021/01/07 07:31:42;;;;;;;8.30;6.55;;;154.20;2252.80;;;;;;5117496;28;20132;-63
2021/01/07 07:34:08;;;;;;;16.13;7.22;;;154.30;2252.80;;;;;;5117482;28;20058;-63
2021/01/07 07:36:35;;;;;;;12.13;8.52;;;154.40;2252.80;;;;;;5117465;27;20020;-63
2021/01/07 07:39:03;;;;;;;13.40;8.23;;;154.40;2252.80;;;;;;5116070;28;20344;-65
2021/01/07 07:41:29;;;;;;;26.52;17.92;;;179.40;2252.80;;;;;;5116517;28;20107;-63
2021/01/07 07:43:55;;;;;;;26.48;16.05;;;179.60;2252.80;;;;;;5117398;28;20031;-64
2021/01/07 07:46:25;;;;;;;14.82;11.20;;;179.70;2252.80;;;;;;5117284;28;20146;-65
2021/01/07 07:49:01;;;;;;;14.75;11.43;;;179.80;2252.80;;;;;;5116938;28;20506;-65
2021/01/07 07:51:28;;;;;;;11.13;8.50;;;179.70;2252.80;;;;;;5117117;28;20429;-65
2021/01/07 07:54:11;;;;;;;10.63;8.48;;;179.90;2252.80;;;;;;5116501;28;20049;-64
2021/01/07 07:56:38;;;;;;;174.43;95.70;;;179.80;2252.80;;;;;;5116592;28;20035;-63
2021/01/07 07:59:05;;;;;;;117.65;65.72;;;179.40;2252.80;;;;;;5117244;28;20333;-62
2021/01/07 08:01:46;;;;;;;25.45;17.67;;;179.30;2252.80;;;;;;5115508;28;20345;-62
2021/01/07 08:04:17;;;;;;;16.05;10.45;;;179.40;2252.80;;;;;;5115459;28;20070;-62
2021/01/07 08:06:44;;;;;;;15.10;9.23;;;179.40;2252.80;;;;;;5116441;28;20054;-63
2021/01/07 08:09:15;;;;;;;15.98;10.25;;;179.30;2252.80;;;;;;5115829;28;20038;-63
2021/01/07 08:11:47;;;;;;;19.63;14.55;;;154.50;2252.80;;;;;;5115522;28;20034;-62
2021/01/07 08:14:17;;;;;;;26.00;18.42;;;154.30;2252.80;;;;;;5115920;27;20118;-63
2021/01/07 08:16:44;;;;;;;12.48;7.05;;;154.30;2252.80;;;;;;5114226;28;20344;-61
2021/01/07 08:19:21;;;;;;;6.07;4.55;;;154.20;2252.80;;;;;;5116132;28;20158;-64
2021/01/07 08:21:52;;;;;;;14.57;9.68;;;154.20;2252.80;;;;;;5115033;27;20038;-66
2021/01/07 08:24:19;;;;;;;7.18;4.53;;;154.10;2252.80;;;;;;5116752;28;20718;-64
2021/01/07 08:27:04;;;;;;;19.50;10.00;;;153.80;2252.80;;;;;;5115639;28;20028;-62
2021/01/07 08:29:34;;;;;;;13.30;7.47;;;153.80;2252.80;;;;;;5115586;28;20027;-64
2021/01/07 08:32:03;;;;;;;5.10;3.70;;;153.90;2252.80;;;;;;5116409;28;20036;-64
2021/01/07 08:34:31;;;;;;;4.50;2.50;;;154.00;2252.80;;;;;;5116092;28;20118;-64
2021/01/07 08:37:08;;;;;;;3.08;2.00;;;153.90;2252.80;;;;;;5114766;28;20705;-64
2021/01/07 08:39:41;;;;;;;4.07;2.58;;;154.00;2252.80;;;;;;5114773;28;20028;-62
2021/01/07 08:42:07;;;;;;;4.15;2.35;;;153.90;2252.80;;;;;;5115380;28;20023;-62
2021/01/07 08:44:34;;;;;;;53.60;37.60;;;153.90;2252.80;;;;;;5115777;28;20434;-63
2021/01/07 08:47:01;;;;;;;34.30;23.83;;;154.00;2252.80;;;;;;5115742;28;20452;-62
2021/01/07 08:49:28;;;;;;;40.22;26.88;;;154.10;2252.80;;;;;;5114867;28;20043;-63
2021/01/07 08:51:58;;;;;;;31.98;21.67;;;154.20;2252.80;;;;;;5115407;28;20023;-61
2021/01/07 08:54:24;;;;;;;55.40;46.45;;;154.40;2252.80;;;;;;5116388;28;20051;-62
2021/01/07 08:56:52;;;;;;;38.22;28.15;;;179.20;2252.80;;;;;;5108722;28;20126;-63
2021/01/07 08:59:30;;;;;;;13.07;10.48;;;179.40;2252.80;;;;;;5097305;28;20035;-63
2021/01/07 09:02:06;;;;;;;20.48;13.45;;;179.50;2252.80;;;;;;5098049;28;20024;-62
2021/01/07 09:04:36;;;;;;;2.90;1.90;;;179.60;2252.80;;;;;;5097079;28;20028;-63
2021/01/07 09:07:15;;;;;;;3.25;1.60;;;179.50;2252.80;;;;;;5097616;28;20309;-64
2021/01/07 09:09:49;;;;;;;62.47;36.15;;;179.30;2252.80;;;;;;5097309;28;20028;-63
2021/01/07 09:12:32;;;;;;;8.32;6.00;;;179.50;2252.80;;;;;;5097338;28;20114;-64
2021/01/07 09:15:09;;;;;;;3.92;2.17;;;179.40;2252.80;;;;;;5111205;28;20030;-64
2021/01/07 09:17:49;;;;;;;3.75;2.70;;;154.40;2252.80;;;;;;5117350;28;20114;-63
2021/01/07 09:20:21;;;;;;;4.03;2.50;;;154.50;2252.80;;;;;;5116558;28;20031;-64
2021/01/07 09:22:49;;;;;;;13.88;10.10;;;179.20;2252.80;;;;;;5117318;28;20027;-64
2021/01/07 09:25:17;;;;;;;14.32;10.32;;;179.20;2252.80;;;;;;5117555;28;20027;-64
2021/01/07 09:27:44;;;;;;;5.10;3.55;;;179.40;2252.80;;;;;;5117706;28;20413;-64
2021/01/07 09:30:11;;;;;;;6.20;3.08;;;179.40;2252.80;;;;;;5117013;28;20425;-63
2021/01/07 09:32:37;;;;;;;5.28;2.70;;;179.60;2252.80;;;;;;5112909;28;20028;-64
2021/01/07 09:35:04;;;;;;;6.55;2.72;;;179.70;2252.80;;;;;;5116587;28;20031;-66
2021/01/07 09:37:30;;;;;;;4.60;3.22;;;179.80;2252.80;;;;;;5117029;28;20475;-64
2021/01/07 09:39:56;;;;;;;5.95;3.08;;;179.60;2252.80;;;;;;5117147;28;20024;-64
2021/01/07 09:42:22;;;;;;;4.80;2.85;;;179.60;2252.80;;;;;;5117618;28;20023;-63
2021/01/07 09:44:49;;;;;;;8.13;3.17;;;179.40;2252.80;;;;;;5117356;28;20023;-65
2021/01/07 09:47:59;;;;;;;4.25;2.65;;;179.50;2252.80;;;;;;5110685;28;20566;-65
2021/01/07 09:50:27;;;;;;;6.63;3.40;;;179.50;2252.80;;;;;;5116170;28;20421;-67
2021/01/07 09:52:53;;;;;;;15.60;13.27;;;179.30;2252.80;;;;;;5115718;28;20035;-64
2021/01/07 09:55:21;;;;;;;77.25;39.65;;;179.50;2252.80;;;;;;5094637;28;20028;-65
2021/01/07 09:57:49;;;;;;;84.95;44.47;;;179.80;2252.80;;;;;;5095301;28;20349;-66
2021/01/07 10:01:01;;;;;;;10.82;6.60;;;179.90;2252.80;;;;;;5099846;28;20032;-64
2021/01/07 10:03:35;;;;;;;6.93;4.93;;;179.60;2252.80;;;;;;5116439;28;20027;-63
2021/01/07 10:06:04;;;;;;;5.80;4.40;;;179.90;2252.80;;;;;;5116144;28;20020;-65
2021/01/07 10:08:31;;;;;;;5.63;3.80;;;204.80;2252.80;;;;;;5117338;28;20044;-67
2021/01/07 10:10:57;;;;;;;5.68;2.88;;;205.00;2252.80;;;;;;5117496;28;20118;-63
2021/01/07 10:13:22;;;;;;;9.13;7.80;;;205.00;2252.80;;;;;;5116740;28;20467;-64
2021/01/07 10:15:51;;;;;;;7.38;4.18;;;205.20;2252.80;;;;;;5117150;28;20427;-65
2021/01/07 10:18:18;;;;;;;;;;;205.30;2252.80;;;;;;5117499;28;20027;-65
2021/01/07 10:20:44;;;;;;;8.35;3.80;;;205.40;2252.80;;;;;;5116415;28;19904;-65
2021/01/07 10:23:13;;;;;;;4.68;2.10;;;205.20;2227.20;;;;;;5116935;28;20016;-65
2021/01/07 10:25:40;;;;;;;5.88;3.83;;;205.00;2252.80;;;;;;5117202;28;20028;-63
2021/01/07 10:28:08;;;;;;;6.82;4.05;;;204.80;2252.80;;;;;;5100228;28;20020;-64
2021/01/07 10:30:34;;;;;;;7.47;6.63;;;180.10;2252.80;;;;;;5102072;28;20027;-64
2021/01/07 10:33:00;;;;;;;3.58;1.98;;;204.80;2252.80;;;;;;5117930;28;20058;-65
2021/01/07 10:35:27;;;;;;;9.10;5.20;;;204.90;2252.80;;;;;;5117676;28;20073;-65
2021/01/07 10:37:58;;;;;;;7.00;2.10;;;204.90;2176.00;;;;;;5117627;28;20387;-65
2021/01/07 10:40:27;;;;;;;2.80;1.83;;;205.10;2252.80;;;;;;5115154;28;20132;-66
2021/01/07 10:42:53;;;;;;;7.55;2.90;;;205.50;2252.80;;;;;;5115274;28;20028;-65
2021/01/07 10:45:20;;;;;;;3.45;1.73;;;230.40;2252.80;;;;;;5117443;28;20030;-64
2021/01/07 10:47:48;;;;;;;5.13;1.48;;;205.60;2150.40;;;;;;5117211;28;20055;-64
2021/01/07 10:50:21;;;;;;;6.18;3.40;;;205.70;2124.80;;;;;;5117783;28;20023;-66
2021/01/07 10:52:49;;;;;;;5.43;2.75;;;205.70;2099.20;;;;;;5117486;28;20034;-66
2021/01/07 10:55:26;;;;;;;15.38;4.95;;;230.40;2150.40;;;;;;5116952;28;20030;-64
2021/01/07 10:58:11;;;;;;;5.18;3.63;;;230.40;2150.40;;;;;;5117747;28;20428;-66
2021/01/07 11:01:01;;;;;;;10.30;6.00;;;231.20;2150.40;;;;;;5115843;28;20394;-65
2021/01/07 11:03:48;;;;;;;14.77;10.98;;;231.00;2022.40;;;;;;5115319;28;20024;-65
2021/01/07 11:06:19;;;;;;;4.28;2.55;;;231.30;2022.40;;;;;;5117098;28;20027;-65
2021/01/07 11:09:11;;;;;;;3.72;2.00;;;231.00;2022.40;;;;;;5115825;28;20024;-65
2021/01/07 11:11:50;;;;;;;5.47;3.00;;;231.30;2048.00;;;;;;5113793;28;20603;-65
2021/01/07 11:14:44;;;;;;;30.42;20.23;;;256.20;1971.20;;;;;;5114260;28;20019;-66
2021/01/07 11:17:16;;;;;;;19.40;13.60;;;256.20;2048.00;;;;;;5104396;28;20114;-63
2021/01/07 11:19:46;;;;;;;6.53;4.18;;;231.30;2022.40;;;;;;5116522;28;20401;-64
2021/01/07 11:22:29;;;;;;;5.70;3.22;;;256.30;2022.40;;;;;;5116262;28;20094;-65
2021/01/07 11:24:57;;;;;;;9.05;6.45;;;256.40;1996.80;;;;;;5116134;28;20019;-63
2021/01/07 11:27:23;;;;;;;5.32;3.40;;;256.40;1945.60;;;;;;5116163;28;20044;-64
2021/01/07 11:29:51;;;;;;;5.15;3.22;;;256.50;1945.60;;;;;;5115268;28;20318;-65
2021/01/07 11:32:17;;;;;;;6.32;2.97;;;256.80;1996.80;;;;;;5113572;28;20369;-63
2021/01/07 11:34:44;;;;;;;17.83;11.75;;;256.90;1945.60;;;;;;5115027;28;20031;-63
2021/01/07 11:37:31;;;;;;;18.42;10.73;;;256.90;1894.40;;;;;;5114507;28;20023;-62
2021/01/07 11:39:57;;;;;;;51.20;32.67;;;256.40;1945.60;;;;;;5112521;28;20057;-66
2021/01/07 11:42:34;;;;;;;9.40;6.50;;;256.20;1971.20;;;;;;5115164;28;20023;-63
2021/01/07 11:45:15;;;;;;;9.75;4.70;;;231.30;2022.40;;;;;;5095596;28;20122;-63
2021/01/07 11:47:55;;;;;;;10.30;6.20;;;231.10;2073.60;;;;;;5096995;28;20050;-66
2021/01/07 11:50:27;;;;;;;35.40;19.45;;;231.30;2048.00;;;;;;5096733;28;20033;-65
2021/01/07 11:52:55;;;;;;;24.02;13.30;;;231.00;1996.80;;;;;;5095888;28;20055;-65
2021/01/07 11:55:22;;;;;;;35.33;18.70;;;231.30;2022.40;;;;;;5107478;28;20034;-64
2021/01/07 11:57:49;;;;;;;42.15;25.17;;;256.10;2022.40;;;;;;5116560;28;20035;-65
2021/01/07 12:00:16;;;;;;;26.98;15.38;;;256.10;2022.40;;;;;;5116236;28;20035;-64
2021/01/07 12:02:44;;;;;;;12.18;7.05;;;256.00;2073.60;;;;;;5116437;28;20069;-65
2021/01/07 12:05:17;;;;;;;10.07;6.45;;;231.20;2048.00;;;;;;5116492;28;20027;-65
2021/01/07 12:08:13;;;;;;;7.75;4.75;;;230.90;2048.00;;;;;;5116782;28;20052;-64
2021/01/07 12:10:46;;;;;;;4.13;2.90;;;231.20;2048.00;;;;;;5110909;28;20039;-64
2021/01/07 12:13:43;;;;;;;8.07;4.70;;;256.40;2022.40;;;;;;5114673;28;20050;-63
2021/01/07 12:16:18;;;;;;;7.97;4.47;;;256.50;1971.20;;;;;;5115972;28;20088;-62
2021/01/07 12:18:44;;;;;;;7.50;3.38;;;256.80;1996.80;;;;;;5114847;28;20054;-62
2021/01/07 12:21:11;;;;;;;10.00;6.65;;;256.90;1945.60;;;;;;5115992;28;20114;-66
2021/01/07 12:23:39;;;;;;;12.30;7.60;;;256.80;1945.60;;;;;;5114859;28;20026;-64